createdAt,value
2023-01-07T00:00:48.985Z,2.00
2023-01-07T00:01:50.342Z,1.70
2023-01-07T00:02:51.906Z,1.83
2023-01-07T00:03:54.080Z,2.00
2023-01-07T00:04:55.725Z,2.10
2023-01-07T00:06:00.817Z,2.00
2023-01-07T00:07:02.111Z,2.20
2023-01-07T00:08:03.768Z,2.10
2023-01-07T00:09:06.263Z,1.97
2023-01-07T00:10:07.824Z,2.00
2023-01-07T00:11:11.119Z,2.30
2023-01-07T00:12:12.489Z,2.27
2023-01-07T00:13:13.868Z,2.10
2023-01-07T00:14:15.619Z,2.10
2023-01-07T00:15:16.995Z,2.20
2023-01-07T00:16:19.574Z,2.23
2023-01-07T00:17:21.049Z,1.90
2023-01-07T00:18:22.439Z,2.03
2023-01-07T00:19:24.274Z,2.30
2023-01-07T00:20:25.670Z,1.90
2023-01-07T00:21:27.808Z,2.03
2023-01-07T00:22:29.177Z,2.20
2023-01-07T00:23:30.947Z,2.10
2023-01-07T00:24:32.393Z,2.20
2023-01-07T00:25:33.857Z,2.10
2023-01-07T00:26:36.367Z,2.20
2023-01-07T00:27:38.342Z,2.30
2023-01-07T00:28:40.482Z,1.90
2023-01-07T00:29:41.799Z,2.10
2023-01-07T00:30:43.246Z,2.00
2023-01-07T00:31:44.678Z,1.87
2023-01-07T00:33:04.492Z,2.20
2023-01-07T00:34:07.157Z,1.70
2023-01-07T00:35:21.705Z,1.80
2023-01-07T00:36:24.304Z,1.77
2023-01-07T00:37:45.018Z,1.80
2023-01-07T00:38:46.430Z,1.83
2023-01-07T00:39:50.797Z,1.73
2023-01-07T00:40:52.264Z,1.80
2023-01-07T00:42:12.091Z,2.03
2023-01-07T00:43:13.432Z,1.87
2023-01-07T00:44:14.783Z,1.87
2023-01-07T00:45:16.200Z,2.07
2023-01-07T00:46:17.671Z,1.60
2023-01-07T00:47:20.294Z,2.00
2023-01-07T00:48:23.588Z,1.90
2023-01-07T00:49:25.145Z,1.90
2023-01-07T00:50:27.882Z,1.80
2023-01-07T00:51:29.350Z,1.73
2023-01-07T00:52:30.739Z,2.00
2023-01-07T00:53:32.145Z,1.70
2023-01-07T00:54:33.516Z,1.80
2023-01-07T00:55:34.893Z,1.93
2023-01-07T00:56:36.593Z,2.00
2023-01-07T00:57:37.990Z,2.10
2023-01-07T00:58:39.329Z,2.37
2023-01-07T00:59:40.672Z,2.00
2023-01-07T01:00:42.073Z,2.20
2023-01-07T01:01:43.586Z,2.07
2023-01-07T01:02:45.712Z,2.20
2023-01-07T01:03:47.081Z,2.20
2023-01-07T01:04:48.393Z,1.90
2023-01-07T01:05:49.914Z,1.60
2023-01-07T01:06:51.315Z,1.87
2023-01-07T01:07:52.637Z,1.80
2023-01-07T01:08:54.087Z,1.93
2023-01-07T01:09:55.377Z,1.97
2023-01-07T01:11:01.987Z,1.80
2023-01-07T01:12:03.432Z,2.10
2023-01-07T01:13:04.919Z,2.10
2023-01-07T01:14:06.279Z,1.93
2023-01-07T01:15:12.564Z,1.90
2023-01-07T01:16:15.387Z,1.93
2023-01-07T01:17:16.773Z,1.80
2023-01-07T01:18:18.389Z,1.90
2023-01-07T01:19:19.724Z,1.80
2023-01-07T01:20:21.321Z,2.00
2023-01-07T01:21:22.771Z,1.80
2023-01-07T01:22:24.111Z,1.97
2023-01-07T01:23:25.565Z,1.70
2023-01-07T01:24:26.980Z,1.73
2023-01-07T01:25:28.375Z,1.87
2023-01-07T01:26:29.719Z,1.80
2023-01-07T01:27:31.425Z,1.70
2023-01-07T01:28:33.466Z,1.40
2023-01-07T01:29:34.817Z,1.70
2023-01-07T01:30:36.136Z,1.60
2023-01-07T01:31:37.555Z,1.50
2023-01-07T01:32:39.754Z,1.50
2023-01-07T01:33:41.490Z,1.53
2023-01-07T01:34:42.904Z,1.57
2023-01-07T01:35:44.181Z,1.80
2023-01-07T01:36:45.580Z,1.60
2023-01-07T01:37:47.089Z,1.70
2023-01-07T01:38:48.585Z,1.70
2023-01-07T01:39:49.929Z,1.63
2023-01-07T01:40:51.296Z,1.60
2023-01-07T01:41:52.835Z,1.80
2023-01-07T01:42:54.244Z,1.80
2023-01-07T01:43:55.661Z,1.87
2023-01-07T01:44:58.533Z,1.80
2023-01-07T01:46:25.513Z,1.70
2023-01-07T01:47:35.805Z,1.83
2023-01-07T01:48:39.671Z,2.13
2023-01-07T01:49:44.579Z,2.00
2023-01-07T01:50:46.704Z,2.27
2023-01-07T01:51:50.968Z,1.83
2023-01-07T01:53:04.972Z,2.03
2023-01-07T01:54:08.443Z,2.00
2023-01-07T01:55:11.691Z,1.70
2023-01-07T01:56:16.041Z,1.70
2023-01-07T01:57:18.556Z,1.97
2023-01-07T01:58:24.233Z,1.87
2023-01-07T01:59:27.969Z,1.87
2023-01-07T02:00:32.060Z,1.80
2023-01-07T02:01:34.735Z,1.93
2023-01-07T02:02:40.781Z,2.07
2023-01-07T02:03:42.704Z,1.80
2023-01-07T02:04:49.446Z,1.80
2023-01-07T02:05:51.137Z,1.80
2023-01-07T02:07:12.908Z,1.87
2023-01-07T02:08:22.162Z,1.87
2023-01-07T02:09:26.033Z,2.03
2023-01-07T02:10:28.469Z,2.03
2023-01-07T02:11:29.815Z,2.00
2023-01-07T02:12:44.737Z,1.90
2023-01-07T02:14:06.350Z,1.90
2023-01-07T02:15:10.189Z,2.00
2023-01-07T02:16:11.728Z,2.10
2023-01-07T02:17:18.894Z,2.07
2023-01-07T02:18:20.410Z,2.20
2023-01-07T02:19:27.675Z,2.23
2023-01-07T02:20:34.987Z,2.10
2023-01-07T02:21:36.276Z,2.50
2023-01-07T02:23:00.627Z,2.10
2023-01-07T02:24:20.498Z,1.87
2023-01-07T02:25:37.362Z,1.80
2023-01-07T02:26:38.678Z,2.07
2023-01-07T02:27:58.523Z,2.03
2023-01-07T02:29:26.079Z,1.97
2023-01-07T02:30:38.681Z,2.00
2023-01-07T02:32:05.740Z,2.20
2023-01-07T02:33:19.268Z,2.37
2023-01-07T02:34:20.708Z,2.33
2023-01-07T02:35:34.963Z,2.20
2023-01-07T02:36:36.763Z,2.20
2023-01-07T02:37:56.227Z,2.10
2023-01-07T02:39:15.696Z,2.37
2023-01-07T02:40:21.951Z,2.23
2023-01-07T02:41:44.418Z,2.23
2023-01-07T02:42:51.906Z,2.03
2023-01-07T02:43:58.159Z,2.17
2023-01-07T02:44:59.478Z,2.40
2023-01-07T02:46:10.435Z,2.00
2023-01-07T02:47:18.047Z,1.97
2023-01-07T02:48:20.769Z,2.10
2023-01-07T02:49:22.897Z,2.20
2023-01-07T02:50:24.244Z,2.20
2023-01-07T02:51:35.448Z,2.20
2023-01-07T02:52:36.963Z,2.40
2023-01-07T02:53:39.108Z,2.00
2023-01-07T02:54:41.044Z,2.10
2023-01-07T02:56:01.089Z,2.03
2023-01-07T02:57:12.122Z,1.90
2023-01-07T02:58:21.775Z,2.10
2023-01-07T02:59:46.117Z,1.80
2023-01-07T03:01:04.854Z,2.07
2023-01-07T03:02:15.079Z,1.73
2023-01-07T03:03:35.370Z,1.60
2023-01-07T03:05:16.202Z,1.67
2023-01-07T03:06:36.312Z,1.70
2023-01-07T03:07:52.415Z,1.70
2023-01-07T03:09:03.215Z,1.83
2023-01-07T03:10:11.508Z,1.67
2023-01-07T03:11:13.985Z,1.50
2023-01-07T03:12:32.799Z,1.30
2023-01-07T03:13:35.290Z,1.60
2023-01-07T03:14:41.760Z,1.43
2023-01-07T03:15:45.531Z,1.57
2023-01-07T03:16:50.496Z,1.60
2023-01-07T03:18:01.156Z,1.73
2023-01-07T03:19:16.990Z,1.40
2023-01-07T03:20:19.506Z,1.70
2023-01-07T03:21:21.939Z,1.57
2023-01-07T03:22:25.208Z,1.70
2023-01-07T03:23:27.493Z,1.50
2023-01-07T03:24:31.163Z,1.50
2023-01-07T03:25:34.500Z,1.63
2023-01-07T03:26:40.495Z,1.97
2023-01-07T03:27:42.711Z,1.80
2023-01-07T03:28:44.117Z,1.73
2023-01-07T03:29:47.508Z,1.57
2023-01-07T03:30:49.125Z,1.57
2023-01-07T03:32:13.183Z,1.60
2023-01-07T03:33:16.578Z,1.60
2023-01-07T03:34:21.992Z,1.87
2023-01-07T03:35:27.875Z,1.47
2023-01-07T03:36:31.449Z,1.70
2023-01-07T03:37:33.994Z,1.30
2023-01-07T03:38:36.209Z,1.40
2023-01-07T03:39:39.303Z,1.70
2023-01-07T03:40:41.791Z,1.77
2023-01-07T03:42:02.422Z,1.60
2023-01-07T03:43:04.251Z,1.73
2023-01-07T03:44:05.680Z,1.87
2023-01-07T03:45:08.899Z,1.60
2023-01-07T03:46:10.322Z,1.60
2023-01-07T03:47:12.337Z,1.70
2023-01-07T03:48:13.728Z,1.50
2023-01-07T03:49:15.075Z,1.53
2023-01-07T03:50:17.072Z,1.60
2023-01-07T03:51:19.632Z,1.43
2023-01-07T03:52:20.962Z,1.80
2023-01-07T03:53:22.288Z,1.63
2023-01-07T03:54:25.481Z,1.50
2023-01-07T03:55:26.790Z,1.77
2023-01-07T03:56:30.541Z,1.53
2023-01-07T03:57:32.474Z,1.70
2023-01-07T03:58:36.021Z,2.00
2023-01-07T03:59:37.352Z,1.80
2023-01-07T04:00:40.279Z,1.90
2023-01-07T04:01:50.444Z,1.80
2023-01-07T04:02:52.223Z,1.80
2023-01-07T04:04:03.221Z,1.70
2023-01-07T04:05:05.379Z,1.77
2023-01-07T04:06:06.783Z,1.87
2023-01-07T04:07:08.227Z,1.90
2023-01-07T04:08:09.575Z,1.90
2023-01-07T04:09:15.125Z,2.13
2023-01-07T04:10:16.921Z,1.90
2023-01-07T04:11:18.365Z,1.90
2023-01-07T04:12:19.800Z,1.70
2023-01-07T04:13:21.282Z,1.80
2023-01-07T04:14:24.526Z,2.20
2023-01-07T04:15:25.875Z,1.80
2023-01-07T04:16:27.907Z,1.87
2023-01-07T04:17:30.153Z,1.80
2023-01-07T04:18:33.527Z,1.80
2023-01-07T04:19:35.020Z,2.20
2023-01-07T04:20:36.420Z,1.90
2023-01-07T04:21:37.921Z,1.87
2023-01-07T04:22:39.938Z,2.07
2023-01-07T04:23:42.957Z,2.17
2023-01-07T04:24:45.156Z,1.90
2023-01-07T04:25:48.588Z,1.90
2023-01-07T04:26:53.278Z,1.60
2023-01-07T04:27:55.530Z,1.70
2023-01-07T04:28:57.879Z,1.77
2023-01-07T04:29:59.671Z,1.80
2023-01-07T04:31:01.368Z,1.97
2023-01-07T04:32:04.560Z,1.60
2023-01-07T04:33:06.152Z,1.87
2023-01-07T04:34:07.944Z,2.00
2023-01-07T04:35:09.325Z,1.80
2023-01-07T04:36:13.149Z,1.60
2023-01-07T04:37:14.777Z,1.97
2023-01-07T04:38:16.186Z,1.70
2023-01-07T04:39:17.950Z,1.70
2023-01-07T04:40:19.459Z,1.70
2023-01-07T04:41:20.912Z,1.90
2023-01-07T04:42:22.378Z,1.80
2023-01-07T04:43:23.877Z,1.67
2023-01-07T04:44:25.366Z,1.77
2023-01-07T04:45:27.654Z,1.70
2023-01-07T04:46:29.544Z,2.00
2023-01-07T04:47:31.079Z,1.93
2023-01-07T04:48:33.639Z,1.93
2023-01-07T04:49:35.070Z,1.73
2023-01-07T04:50:37.027Z,1.87
2023-01-07T04:51:38.781Z,1.77
2023-01-07T04:52:40.315Z,1.90
2023-01-07T04:53:41.927Z,1.70
2023-01-07T04:54:43.740Z,1.80
2023-01-07T04:55:46.435Z,2.20
2023-01-07T04:56:48.431Z,2.13
2023-01-07T04:57:49.995Z,1.90
2023-01-07T04:58:52.294Z,2.50
2023-01-07T04:59:53.658Z,2.10
2023-01-07T05:00:58.381Z,2.00
2023-01-07T05:02:00.351Z,2.20
2023-01-07T05:03:01.911Z,2.17
2023-01-07T05:04:03.465Z,2.33
2023-01-07T05:05:05.738Z,1.77
2023-01-07T05:06:07.149Z,2.10
2023-01-07T05:07:08.552Z,2.20
2023-01-07T05:08:09.873Z,2.37
2023-01-07T05:09:11.838Z,2.33
2023-01-07T05:10:13.279Z,2.27
2023-01-07T05:11:15.814Z,2.30
2023-01-07T05:12:18.315Z,2.03
2023-01-07T05:13:21.686Z,1.97
2023-01-07T05:14:23.040Z,1.93
2023-01-07T05:15:27.479Z,2.03
2023-01-07T05:16:30.059Z,1.70
2023-01-07T05:17:35.650Z,1.97
2023-01-07T05:18:38.811Z,1.80
2023-01-07T05:19:41.265Z,1.60
2023-01-07T05:20:46.292Z,1.50
2023-01-07T05:21:47.984Z,1.60
2023-01-07T05:22:50.526Z,1.50
2023-01-07T05:23:53.354Z,1.60
2023-01-07T05:24:56.238Z,1.63
2023-01-07T05:25:58.514Z,1.80
2023-01-07T05:26:59.900Z,1.60
2023-01-07T05:28:01.476Z,1.60
2023-01-07T05:29:05.188Z,1.80
2023-01-07T05:30:07.658Z,1.57
2023-01-07T05:31:09.743Z,1.60
2023-01-07T05:32:11.185Z,1.50
2023-01-07T05:33:14.219Z,1.50
2023-01-07T05:34:16.357Z,1.60
2023-01-07T05:35:19.259Z,1.53
2023-01-07T05:36:20.706Z,1.60
2023-01-07T05:37:22.725Z,1.70
2023-01-07T05:38:24.235Z,1.90
2023-01-07T05:39:25.998Z,1.57
2023-01-07T05:40:27.567Z,1.67
2023-01-07T05:41:28.982Z,1.50
2023-01-07T05:42:30.761Z,1.50
2023-01-07T05:43:32.147Z,1.70
2023-01-07T05:44:33.462Z,1.73
2023-01-07T05:45:34.899Z,1.70
2023-01-07T05:46:36.363Z,1.60
2023-01-07T05:47:37.693Z,1.87
2023-01-07T05:48:39.135Z,1.50
2023-01-07T05:49:40.629Z,1.57
2023-01-07T05:50:42.176Z,1.70
2023-01-07T05:51:43.559Z,1.80
2023-01-07T05:52:44.978Z,1.57
2023-01-07T05:53:46.713Z,1.80
2023-01-07T05:54:48.173Z,1.87
2023-01-07T05:55:49.579Z,1.63
2023-01-07T05:56:51.292Z,1.83
2023-01-07T05:57:52.577Z,1.50
2023-01-07T05:58:53.925Z,1.70
2023-01-07T05:59:55.510Z,1.70
2023-01-07T06:00:56.871Z,1.40
2023-01-07T06:01:58.261Z,1.50
2023-01-07T06:02:59.679Z,1.53
2023-01-07T06:04:01.036Z,1.50
2023-01-07T06:05:02.935Z,1.70
2023-01-07T06:06:07.255Z,1.33
2023-01-07T06:07:08.675Z,1.50
2023-01-07T06:08:10.082Z,1.60
2023-01-07T06:09:11.517Z,1.50
2023-01-07T06:10:12.841Z,1.40
2023-01-07T06:11:15.105Z,1.40
2023-01-07T06:12:16.452Z,1.27
2023-01-07T06:13:17.762Z,1.33
2023-01-07T06:14:19.171Z,1.40
2023-01-07T06:15:20.488Z,1.50
2023-01-07T06:16:21.860Z,1.70
2023-01-07T06:17:23.245Z,1.40
2023-01-07T06:18:24.800Z,1.50
2023-01-07T06:19:27.136Z,1.47
2023-01-07T06:20:29.718Z,1.43
2023-01-07T06:21:31.014Z,1.30
2023-01-07T06:22:32.322Z,1.20
2023-01-07T06:23:33.913Z,1.57
2023-01-07T06:24:35.246Z,1.20
2023-01-07T06:25:36.567Z,1.60
2023-01-07T06:26:38.065Z,1.20
2023-01-07T06:27:40.822Z,1.30
2023-01-07T06:28:43.823Z,1.50
2023-01-07T06:29:45.370Z,1.40
2023-01-07T06:30:47.994Z,1.60
2023-01-07T06:31:49.586Z,1.50
2023-01-07T06:32:51.016Z,1.30
2023-01-07T06:33:52.331Z,1.50
2023-01-07T06:34:53.759Z,1.47
2023-01-07T06:35:55.092Z,1.30
2023-01-07T06:36:56.395Z,1.47
2023-01-07T06:37:57.774Z,1.30
2023-01-07T06:38:59.083Z,1.70
2023-01-07T06:40:00.437Z,1.60
2023-01-07T06:41:04.656Z,1.90
2023-01-07T06:42:05.960Z,1.90
2023-01-07T06:43:07.236Z,1.70
2023-01-07T06:44:08.653Z,1.60
2023-01-07T06:45:10.152Z,1.60
2023-01-07T06:46:11.478Z,1.73
2023-01-07T06:47:12.828Z,1.80
2023-01-07T06:48:14.161Z,1.80
2023-01-07T06:49:15.447Z,1.57
2023-01-07T06:50:17.421Z,1.53
2023-01-07T06:51:18.799Z,1.60
2023-01-07T06:52:20.190Z,1.27
2023-01-07T06:53:21.572Z,1.70
2023-01-07T06:54:22.877Z,1.80
2023-01-07T06:55:24.270Z,1.70
2023-01-07T06:56:25.561Z,1.63
2023-01-07T06:57:26.937Z,1.70
2023-01-07T06:58:28.248Z,1.67
2023-01-07T06:59:29.603Z,1.70
2023-01-07T07:00:30.904Z,1.97
2023-01-07T07:01:32.394Z,1.70
2023-01-07T07:02:33.872Z,2.00
2023-01-07T07:03:35.253Z,1.80
2023-01-07T07:04:36.579Z,1.80
2023-01-07T07:05:37.994Z,1.30
2023-01-07T07:06:39.303Z,1.80
2023-01-07T07:07:40.687Z,1.60
2023-01-07T07:08:41.980Z,1.70
2023-01-07T07:09:43.565Z,1.50
2023-01-07T07:10:44.859Z,1.57
2023-01-07T07:11:46.174Z,1.67
2023-01-07T07:12:47.496Z,1.50
2023-01-07T07:13:48.806Z,1.67
2023-01-07T07:14:50.934Z,1.50
2023-01-07T07:15:52.242Z,1.47
2023-01-07T07:16:53.580Z,1.40
2023-01-07T07:17:54.854Z,1.37
2023-01-07T07:18:56.217Z,1.13
2023-01-07T07:19:57.575Z,1.27
2023-01-07T07:20:58.879Z,1.63
2023-01-07T07:22:00.230Z,1.90
2023-01-07T07:23:01.822Z,1.40
2023-01-07T07:24:03.221Z,1.70
2023-01-07T07:25:04.700Z,1.10
2023-01-07T07:26:06.075Z,1.13
2023-01-07T07:27:07.399Z,1.30
2023-01-07T07:28:08.673Z,1.30
2023-01-07T07:29:10.515Z,1.20
2023-01-07T07:30:12.846Z,1.50
2023-01-07T07:31:14.171Z,1.50
2023-01-07T07:32:15.537Z,1.30
2023-01-07T07:33:19.100Z,1.43
2023-01-07T07:34:20.790Z,1.30
2023-01-07T07:35:22.290Z,1.70
2023-01-07T07:36:23.647Z,1.50
2023-01-07T07:37:24.986Z,1.50
2023-01-07T07:38:26.314Z,1.20
2023-01-07T07:39:27.661Z,1.40
2023-01-07T07:40:28.970Z,1.20
2023-01-07T07:41:30.576Z,1.50
2023-01-07T07:43:09.395Z,1.30
2023-01-07T07:43:56.028Z,1.33
2023-01-07T07:44:57.337Z,1.13
2023-01-07T07:45:58.767Z,1.30
2023-01-07T07:47:00.062Z,1.33
2023-01-07T07:48:01.399Z,1.23
2023-01-07T07:49:02.839Z,1.27
2023-01-07T07:50:04.608Z,1.37
2023-01-07T07:51:05.899Z,1.80
2023-01-07T07:52:07.204Z,2.27
2023-01-07T07:53:10.240Z,2.40
2023-01-07T07:54:11.793Z,2.07
2023-01-07T07:55:20.598Z,1.43
2023-01-07T07:56:23.883Z,1.30
2023-01-07T07:57:25.210Z,1.20
2023-01-07T07:58:26.544Z,1.10
2023-01-07T07:59:27.873Z,1.10
2023-01-07T08:00:29.175Z,1.00
2023-01-07T08:01:30.645Z,1.07
2023-01-07T08:02:31.968Z,1.63
2023-01-07T08:03:33.292Z,1.20
2023-01-07T08:04:35.168Z,1.10
2023-01-07T08:05:39.569Z,1.00
2023-01-07T08:06:42.057Z,1.13
2023-01-07T08:07:43.565Z,1.10
2023-01-07T08:08:44.947Z,1.00
2023-01-07T08:09:46.299Z,0.97
2023-01-07T08:10:47.664Z,1.03
2023-01-07T08:11:51.447Z,0.93
2023-01-07T08:12:52.932Z,1.30
2023-01-07T08:13:54.324Z,1.10
2023-01-07T08:14:55.592Z,1.00
2023-01-07T08:15:57.257Z,1.07
2023-01-07T08:16:58.593Z,1.43
2023-01-07T08:18:00.734Z,1.20
2023-01-07T08:19:02.066Z,1.03
2023-01-07T08:20:07.316Z,0.80
2023-01-07T08:21:08.750Z,1.00
2023-01-07T08:22:10.124Z,1.10
2023-01-07T08:23:11.394Z,1.00
2023-01-07T08:24:12.819Z,1.00
2023-01-07T08:25:14.117Z,0.90
2023-01-07T08:26:15.485Z,0.80
2023-01-07T08:27:16.768Z,0.90
2023-01-07T08:28:18.072Z,1.30
2023-01-07T08:29:19.426Z,0.83
2023-01-07T08:30:20.757Z,1.00
2023-01-07T08:31:22.113Z,1.00
2023-01-07T08:32:23.488Z,0.90
2023-01-07T08:33:24.796Z,1.20
2023-01-07T08:34:26.192Z,1.00
2023-01-07T08:35:27.519Z,1.17
2023-01-07T08:36:28.889Z,1.10
2023-01-07T08:37:30.509Z,1.60
2023-01-07T08:38:32.484Z,1.00
2023-01-07T08:39:33.810Z,0.90
2023-01-07T08:40:35.675Z,0.80
2023-01-07T08:41:36.961Z,0.93
2023-01-07T08:42:38.587Z,1.00
2023-01-07T08:43:39.928Z,1.00
2023-01-07T08:44:41.240Z,1.00
2023-01-07T08:45:47.763Z,1.00
2023-01-07T08:46:49.195Z,0.80
2023-01-07T08:47:50.630Z,0.90
2023-01-07T08:48:51.958Z,0.87
2023-01-07T08:49:56.519Z,0.80
2023-01-07T08:50:57.937Z,0.80
2023-01-07T08:51:59.251Z,1.00
2023-01-07T08:53:01.311Z,1.20
2023-01-07T08:54:06.593Z,1.00
2023-01-07T08:55:08.780Z,1.00
2023-01-07T08:56:10.116Z,1.10
2023-01-07T08:57:11.393Z,0.90
2023-01-07T08:58:12.915Z,0.90
2023-01-07T08:59:14.238Z,1.03
2023-01-07T09:00:16.312Z,0.90
2023-01-07T09:01:17.847Z,0.80
2023-01-07T09:02:19.710Z,0.87
2023-01-07T09:03:21.504Z,0.83
2023-01-07T09:04:22.870Z,0.80
2023-01-07T09:05:24.592Z,0.80
2023-01-07T09:06:25.918Z,1.10
2023-01-07T09:07:27.205Z,0.90
2023-01-07T09:08:28.527Z,0.87
2023-01-07T09:09:29.797Z,1.00
2023-01-07T09:10:31.106Z,1.20
2023-01-07T09:11:32.539Z,1.50
2023-01-07T09:12:33.971Z,0.80
2023-01-07T09:13:35.338Z,1.00
2023-01-07T09:14:36.676Z,1.10
2023-01-07T09:15:38.040Z,1.00
2023-01-07T09:16:39.368Z,0.80
2023-01-07T09:17:40.711Z,0.80
2023-01-07T09:18:42.110Z,1.00
2023-01-07T09:19:43.430Z,0.90
2023-01-07T09:20:44.965Z,1.00
2023-01-07T09:21:46.306Z,1.00
2023-01-07T09:22:47.623Z,0.90
2023-01-07T09:23:48.914Z,1.07
2023-01-07T09:24:50.215Z,1.00
2023-01-07T09:25:51.553Z,1.30
2023-01-07T09:26:52.842Z,1.10
2023-01-07T09:27:54.179Z,1.10
2023-01-07T09:28:55.487Z,1.20
2023-01-07T09:29:58.446Z,1.77
2023-01-07T09:31:00.800Z,1.00
2023-01-07T09:32:02.133Z,0.73
2023-01-07T09:33:03.798Z,0.97
2023-01-07T09:34:05.086Z,1.10
2023-01-07T09:35:06.752Z,0.90
2023-01-07T09:36:08.225Z,0.90
2023-01-07T09:37:09.574Z,1.10
2023-01-07T09:38:11.086Z,0.90
2023-01-07T09:39:12.520Z,0.70
2023-01-07T09:40:35.132Z,0.80
2023-01-07T09:41:56.811Z,0.73
2023-01-07T09:43:02.649Z,0.90
2023-01-07T09:44:12.446Z,0.70
2023-01-07T09:45:19.012Z,1.00
2023-01-07T09:46:20.484Z,0.80
2023-01-07T09:47:24.812Z,0.80
2023-01-07T09:48:28.996Z,0.80
2023-01-07T09:49:32.430Z,1.10
2023-01-07T09:50:52.384Z,0.80
2023-01-07T09:51:57.170Z,0.90
2023-01-07T09:53:00.599Z,0.80
2023-01-07T09:54:03.369Z,0.80
2023-01-07T09:55:08.242Z,0.73
2023-01-07T09:56:21.096Z,0.70
2023-01-07T09:57:22.594Z,0.80
2023-01-07T09:58:24.160Z,0.70
2023-01-07T09:59:25.545Z,0.60
2023-01-07T10:00:27.012Z,0.80
2023-01-07T10:01:39.144Z,0.60
2023-01-07T10:02:46.952Z,0.70
2023-01-07T10:03:55.172Z,0.80
2023-01-07T10:04:56.475Z,0.90
2023-01-07T10:06:06.983Z,0.80
2023-01-07T10:07:08.283Z,1.60
2023-01-07T10:08:31.062Z,0.80
2023-01-07T10:09:33.551Z,0.80
2023-01-07T10:10:40.933Z,0.80
2023-01-07T10:11:52.898Z,0.83
2023-01-07T10:12:54.196Z,0.70
2023-01-07T10:14:14.422Z,0.70
2023-01-07T10:15:24.783Z,0.60
2023-01-07T10:16:32.478Z,0.60
2023-01-07T10:17:43.061Z,0.50
2023-01-07T10:18:53.153Z,0.70
2023-01-07T10:20:10.558Z,0.70
2023-01-07T10:21:18.384Z,0.70
2023-01-07T10:22:27.201Z,0.70
2023-01-07T10:23:31.921Z,0.73
2023-01-07T10:24:37.885Z,0.70
2023-01-07T10:25:49.382Z,0.77
2023-01-07T10:26:53.283Z,0.70
2023-01-07T10:27:55.998Z,0.70
2023-01-07T10:28:59.669Z,0.70
2023-01-07T10:30:03.096Z,0.60
2023-01-07T10:31:05.384Z,0.60
2023-01-07T10:32:08.170Z,0.60
2023-01-07T10:33:12.506Z,0.60
2023-01-07T10:34:15.633Z,0.50
2023-01-07T10:35:20.504Z,0.60
2023-01-07T10:36:30.764Z,0.80
2023-01-07T10:37:32.161Z,0.57
2023-01-07T10:38:34.552Z,0.60
2023-01-07T10:39:43.367Z,0.60
2023-01-07T10:40:51.643Z,0.60
2023-01-07T10:42:09.931Z,0.63
2023-01-07T10:43:24.674Z,0.60
2023-01-07T10:44:25.954Z,0.60
2023-01-07T10:45:34.745Z,0.90
2023-01-07T10:46:44.976Z,0.63
2023-01-07T10:48:01.555Z,0.60
2023-01-07T10:49:03.037Z,0.70
2023-01-07T10:50:30.118Z,0.60
2023-01-07T10:51:34.576Z,0.53
2023-01-07T10:52:56.225Z,0.67
2023-01-07T10:54:14.140Z,0.50
2023-01-07T10:55:21.722Z,0.70
2023-01-07T10:56:23.147Z,0.53
2023-01-07T10:57:25.626Z,0.70
2023-01-07T10:58:30.664Z,0.80
2023-01-07T10:59:32.181Z,0.57
2023-01-07T11:00:33.763Z,0.57
2023-01-07T11:01:36.600Z,0.73
2023-01-07T11:02:38.752Z,0.63
2023-01-07T11:03:40.233Z,0.83
2023-01-07T11:04:41.601Z,1.17
2023-01-07T11:05:43.063Z,0.90
2023-01-07T11:06:47.601Z,0.50
2023-01-07T11:07:51.165Z,0.70
2023-01-07T11:08:53.335Z,0.60
2023-01-07T11:09:56.016Z,0.50
2023-01-07T11:10:58.839Z,0.60
2023-01-07T11:12:21.354Z,0.60
2023-01-07T11:13:25.803Z,0.73
2023-01-07T11:14:32.793Z,1.00
2023-01-07T11:15:45.022Z,0.70
2023-01-07T11:16:51.457Z,0.87
2023-01-07T11:17:56.626Z,1.80
2023-01-07T11:19:04.210Z,1.57
2023-01-07T11:20:06.189Z,0.60
2023-01-07T11:21:07.538Z,1.10
2023-01-07T11:22:28.058Z,0.70
2023-01-07T11:23:29.885Z,1.03
2023-01-07T11:24:34.780Z,0.70
2023-01-07T11:25:36.103Z,0.60
2023-01-07T11:26:37.470Z,0.60
2023-01-07T11:27:45.079Z,0.80
2023-01-07T11:28:52.247Z,1.20
2023-01-07T11:30:01.945Z,0.97
2023-01-07T11:31:03.480Z,1.80
2023-01-07T11:32:05.909Z,1.90
2023-01-07T11:33:07.643Z,1.40
2023-01-07T11:34:16.913Z,0.50
2023-01-07T11:35:22.372Z,0.60
2023-01-07T11:36:38.885Z,0.60
2023-01-07T11:37:41.574Z,1.13
2023-01-07T11:38:43.004Z,1.57
2023-01-07T11:39:57.482Z,1.13
2023-01-07T11:41:00.684Z,0.80
2023-01-07T11:42:34.244Z,0.57
2023-01-07T11:43:38.841Z,1.00
2023-01-07T11:44:40.188Z,1.33
2023-01-07T11:46:19.122Z,1.00
2023-01-07T11:47:14.273Z,0.73
2023-01-07T11:48:23.904Z,0.90
2023-01-07T11:49:29.805Z,0.90
2023-01-07T11:50:38.634Z,0.83
2023-01-07T11:51:40.389Z,0.80
2023-01-07T11:52:41.721Z,1.00
2023-01-07T11:53:50.819Z,1.03
2023-01-07T11:54:52.271Z,1.27
2023-01-07T11:55:59.896Z,1.37
2023-01-07T11:57:11.743Z,1.20
2023-01-07T11:58:28.933Z,1.20
2023-01-07T11:59:31.842Z,1.17
2023-01-07T12:00:33.501Z,1.30
2023-01-07T12:01:41.527Z,1.00
2023-01-07T12:02:42.944Z,1.67
2023-01-07T12:03:46.056Z,1.40
2023-01-07T12:04:47.491Z,0.73
2023-01-07T12:05:55.342Z,1.00
2023-01-07T12:07:01.358Z,0.80
2023-01-07T12:08:03.273Z,0.80
2023-01-07T12:09:15.028Z,0.90
2023-01-07T12:10:24.645Z,0.73
2023-01-07T12:11:30.651Z,0.90
2023-01-07T12:12:34.138Z,0.90
2023-01-07T12:13:36.044Z,0.80
2023-01-07T12:14:38.031Z,0.80
2023-01-07T12:15:47.889Z,0.60
2023-01-07T12:16:51.664Z,0.90
2023-01-07T12:18:08.270Z,0.90
2023-01-07T12:19:09.602Z,0.70
2023-01-07T12:20:24.903Z,0.80
2023-01-07T12:21:39.337Z,0.90
2023-01-07T12:22:43.748Z,0.80
2023-01-07T12:23:45.065Z,0.70
2023-01-07T12:24:52.911Z,0.80
2023-01-07T12:26:06.473Z,0.83
2023-01-07T12:27:26.315Z,0.80
2023-01-07T12:28:44.079Z,0.70
2023-01-07T12:30:02.829Z,0.70
2023-01-07T12:31:13.060Z,0.87
2023-01-07T12:32:26.792Z,0.67
2023-01-07T12:33:47.163Z,0.80
2023-01-07T12:34:48.433Z,0.63
2023-01-07T12:35:50.378Z,0.60
2023-01-07T12:37:01.725Z,0.73
2023-01-07T12:38:05.953Z,0.60
2023-01-07T12:39:15.799Z,0.70
2023-01-07T12:40:28.767Z,0.60
2023-01-07T12:41:36.661Z,1.10
2023-01-07T12:42:40.638Z,1.40
2023-01-07T12:44:00.561Z,1.70
2023-01-07T12:45:04.412Z,1.70
2023-01-07T12:46:07.263Z,1.57
2023-01-07T12:47:31.249Z,2.13
2023-01-07T12:48:51.024Z,1.50
2023-01-07T12:49:59.499Z,1.00
2023-01-07T12:51:03.426Z,1.30
2023-01-07T12:52:10.782Z,0.80
2023-01-07T12:53:25.184Z,0.80
2023-01-07T12:54:32.332Z,0.80
2023-01-07T12:55:42.898Z,0.80
2023-01-07T12:56:53.199Z,0.70
2023-01-07T12:57:58.955Z,0.90
2023-01-07T12:59:05.782Z,1.00
2023-01-07T13:00:22.105Z,0.80
2023-01-07T13:01:32.601Z,0.90
2023-01-07T13:02:48.176Z,0.70
2023-01-07T13:03:58.642Z,0.80
2023-01-07T13:05:07.976Z,0.80
2023-01-07T13:06:20.853Z,0.87
2023-01-07T13:07:27.385Z,1.13
2023-01-07T13:08:44.326Z,0.70
2023-01-07T13:09:59.699Z,1.00
2023-01-07T13:11:12.355Z,1.50
2023-01-07T13:12:43.061Z,1.23
2023-01-07T13:13:49.091Z,3.00
2023-01-07T13:14:52.168Z,2.00
2023-01-07T13:15:53.817Z,1.60
2023-01-07T13:16:59.557Z,1.20
2023-01-07T13:18:10.075Z,1.00
2023-01-07T13:19:11.543Z,0.90
2023-01-07T13:20:14.054Z,0.90
2023-01-07T13:21:16.079Z,1.07
2023-01-07T13:22:32.557Z,1.00
2023-01-07T13:23:42.948Z,0.97
2023-01-07T13:24:54.524Z,0.90
2023-01-07T13:26:16.941Z,0.80
2023-01-07T13:27:29.049Z,0.97
2023-01-07T13:28:49.930Z,0.77
2023-01-07T13:29:54.466Z,0.90
2023-01-07T13:31:14.566Z,1.20
2023-01-07T13:32:51.333Z,1.00
2023-01-07T13:33:58.224Z,1.50
2023-01-07T13:35:18.426Z,2.87
2023-01-07T13:36:19.726Z,1.60
2023-01-07T13:37:42.410Z,1.50
2023-01-07T13:39:02.338Z,1.60
2023-01-07T13:40:22.157Z,1.53
2023-01-07T13:41:44.457Z,1.40
2023-01-07T13:42:53.575Z,1.00
2023-01-07T13:44:21.318Z,1.20
2023-01-07T13:45:27.060Z,1.10
2023-01-07T13:46:46.981Z,0.90
2023-01-07T13:47:50.544Z,1.10
2023-01-07T13:48:53.738Z,0.90
2023-01-07T13:49:57.707Z,0.90
2023-01-07T13:51:04.228Z,1.10
2023-01-07T13:52:13.689Z,1.00
2023-01-07T13:53:14.993Z,0.97
2023-01-07T13:54:36.368Z,1.10
2023-01-07T13:55:39.150Z,0.90
2023-01-07T13:56:40.621Z,1.03
2023-01-07T13:57:43.053Z,0.90
2023-01-07T13:58:45.345Z,1.00
2023-01-07T13:59:47.745Z,1.00
2023-01-07T14:01:09.556Z,1.00
2023-01-07T14:02:37.026Z,1.10
2023-01-07T14:03:44.408Z,0.90
2023-01-07T14:05:05.937Z,1.00
2023-01-07T14:06:23.626Z,1.10
2023-01-07T14:07:25.016Z,1.40
2023-01-07T14:08:28.194Z,1.00
2023-01-07T14:09:33.716Z,1.00
2023-01-07T14:10:36.466Z,1.20
2023-01-07T14:11:41.880Z,1.53
2023-01-07T14:12:52.537Z,1.30
2023-01-07T14:14:14.120Z,1.30
2023-01-07T14:15:21.927Z,1.20
2023-01-07T14:16:29.228Z,1.17
2023-01-07T14:17:33.316Z,1.07
2023-01-07T14:18:44.569Z,1.10
2023-01-07T14:20:02.433Z,1.10
2023-01-07T14:21:06.640Z,1.10
2023-01-07T14:22:22.011Z,1.17
2023-01-07T14:23:35.053Z,1.20
2023-01-07T14:24:48.385Z,1.27
2023-01-07T14:25:58.099Z,1.27